sensor_id;sensor_type;location;lat;lon;timestamp;temperature;humidity
50544;DHT22;41176;44.032;20.900;2022-09-09T00:02:10;21.90;99.90
50544;DHT22;41176;44.032;20.900;2022-09-09T00:10:57;21.60;99.90
50544;DHT22;41176;44.032;20.900;2022-09-09T00:13:42;21.60;99.90
50544;DHT22;41176;44.032;20.900;2022-09-09T00:16:15;21.60;99.90
50544;DHT22;41176;44.032;20.900;2022-09-09T00:21:39;21.60;99.90
50544;DHT22;41176;44.032;20.900;2022-09-09T00:24:32;21.60;99.90
50544;DHT22;41176;44.032;20.900;2022-09-09T00:27:07;21.60;99.90
50544;DHT22;41176;44.032;20.900;2022-09-09T00:29:53;21.60;99.90
50544;DHT22;41176;44.032;20.900;2022-09-09T00:32:33;21.60;99.90
50544;DHT22;41176;44.032;20.900;2022-09-09T00:38:01;21.60;99.90
50544;DHT22;41176;44.032;20.900;2022-09-09T00:43:45;21.50;99.90
50544;DHT22;41176;44.032;20.900;2022-09-09T00:57:34;21.60;99.90
50544;DHT22;41176;44.032;20.900;2022-09-09T01:00:20;21.60;99.90
50544;DHT22;41176;44.032;20.900;2022-09-09T01:03:20;21.50;99.90
50544;DHT22;41176;44.032;20.900;2022-09-09T01:12:16;21.40;99.90
50544;DHT22;41176;44.032;20.900;2022-09-09T01:17:56;21.10;99.90
50544;DHT22;41176;44.032;20.900;2022-09-09T01:26:21;21.10;99.90
50544;DHT22;41176;44.032;20.900;2022-09-09T01:28:50;21.10;99.90
50544;DHT22;41176;44.032;20.900;2022-09-09T01:31:38;21.20;99.90
50544;DHT22;41176;44.032;20.900;2022-09-09T01:34:13;21.20;99.90
50544;DHT22;41176;44.032;20.900;2022-09-09T01:36:49;21.20;99.90
50544;DHT22;41176;44.032;20.900;2022-09-09T01:39:19;21.20;99.90
50544;DHT22;41176;44.032;20.900;2022-09-09T01:41:46;21.20;99.90
50544;DHT22;41176;44.032;20.900;2022-09-09T01:44:15;21.20;99.90
50544;DHT22;41176;44.032;20.900;2022-09-09T01:46:41;21.30;99.90
50544;DHT22;41176;44.032;20.900;2022-09-09T01:49:09;21.30;99.90
50544;DHT22;41176;44.032;20.900;2022-09-09T01:51:36;21.30;99.90
50544;DHT22;41176;44.032;20.900;2022-09-09T01:54:04;21.30;99.90
50544;DHT22;41176;44.032;20.900;2022-09-09T01:59:58;21.50;99.90
50544;DHT22;41176;44.032;20.900;2022-09-09T02:02:36;21.60;99.90
50544;DHT22;41176;44.032;20.900;2022-09-09T02:07:51;21.70;99.90
50544;DHT22;41176;44.032;20.900;2022-09-09T02:10:39;21.80;99.90
50544;DHT22;41176;44.032;20.900;2022-09-09T02:13:15;21.70;99.90
50544;DHT22;41176;44.032;20.900;2022-09-09T02:16:03;21.60;99.90
50544;DHT22;41176;44.032;20.900;2022-09-09T02:18:38;21.60;99.90
50544;DHT22;41176;44.032;20.900;2022-09-09T02:21:05;21.50;99.90
50544;DHT22;41176;44.032;20.900;2022-09-09T02:23:33;21.50;99.90
50544;DHT22;41176;44.032;20.900;2022-09-09T02:26:00;21.30;99.90
50544;DHT22;41176;44.032;20.900;2022-09-09T02:28:30;21.30;99.90
50544;DHT22;41176;44.032;20.900;2022-09-09T02:30:57;21.30;99.90
50544;DHT22;41176;44.032;20.900;2022-09-09T02:33:27;21.40;99.90
50544;DHT22;41176;44.032;20.900;2022-09-09T02:35:55;21.40;99.90
50544;DHT22;41176;44.032;20.900;2022-09-09T02:38:28;21.50;99.90
50544;DHT22;41176;44.032;20.900;2022-09-09T02:40:55;21.50;99.90
50544;DHT22;41176;44.032;20.900;2022-09-09T02:43:21;21.50;99.90
50544;DHT22;41176;44.032;20.900;2022-09-09T02:48:48;21.50;99.90
50544;DHT22;41176;44.032;20.900;2022-09-09T02:56:53;21.40;99.90
50544;DHT22;41176;44.032;20.900;2022-09-09T02:59:22;21.30;99.90
50544;DHT22;41176;44.032;20.900;2022-09-09T03:01:50;21.20;99.90
50544;DHT22;41176;44.032;20.900;2022-09-09T03:04:16;21.30;99.90
50544;DHT22;41176;44.032;20.900;2022-09-09T03:06:42;21.40;99.90
50544;DHT22;41176;44.032;20.900;2022-09-09T03:09:08;21.40;99.90
50544;DHT22;41176;44.032;20.900;2022-09-09T03:11:36;21.40;99.90
50544;DHT22;41176;44.032;20.900;2022-09-09T03:14:02;21.40;99.90
50544;DHT22;41176;44.032;20.900;2022-09-09T03:16:28;21.50;99.90
50544;DHT22;41176;44.032;20.900;2022-09-09T03:18:55;21.50;99.90
50544;DHT22;41176;44.032;20.900;2022-09-09T03:21:21;21.60;99.90
50544;DHT22;41176;44.032;20.900;2022-09-09T03:23:47;21.60;99.90
50544;DHT22;41176;44.032;20.900;2022-09-09T03:26:13;21.70;99.90
50544;DHT22;41176;44.032;20.900;2022-09-09T03:28:41;21.70;99.90
50544;DHT22;41176;44.032;20.900;2022-09-09T03:31:07;21.70;99.90
50544;DHT22;41176;44.032;20.900;2022-09-09T03:33:36;21.70;99.90
50544;DHT22;41176;44.032;20.900;2022-09-09T03:36:03;21.70;99.90
50544;DHT22;41176;44.032;20.900;2022-09-09T03:38:29;21.70;99.90
50544;DHT22;41176;44.032;20.900;2022-09-09T03:40:56;21.70;99.90
50544;DHT22;41176;44.032;20.900;2022-09-09T03:43:26;21.70;99.90
50544;DHT22;41176;44.032;20.900;2022-09-09T03:45:53;21.70;99.90
50544;DHT22;41176;44.032;20.900;2022-09-09T03:48:22;21.70;99.90
50544;DHT22;41176;44.032;20.900;2022-09-09T03:50:50;21.70;99.90
50544;DHT22;41176;44.032;20.900;2022-09-09T03:53:20;21.70;99.90
50544;DHT22;41176;44.032;20.900;2022-09-09T03:55:49;21.70;99.90
50544;DHT22;41176;44.032;20.900;2022-09-09T03:58:16;21.70;99.90
50544;DHT22;41176;44.032;20.900;2022-09-09T04:00:53;21.80;99.90
50544;DHT22;41176;44.032;20.900;2022-09-09T04:03:19;21.80;99.90
50544;DHT22;41176;44.032;20.900;2022-09-09T04:05:45;21.80;99.90
50544;DHT22;41176;44.032;20.900;2022-09-09T04:08:15;21.80;99.90
50544;DHT22;41176;44.032;20.900;2022-09-09T04:10:41;21.90;99.90
50544;DHT22;41176;44.032;20.900;2022-09-09T04:13:07;21.80;99.90
50544;DHT22;41176;44.032;20.900;2022-09-09T04:15:33;21.80;99.90
50544;DHT22;41176;44.032;20.900;2022-09-09T04:18:01;21.70;99.90
50544;DHT22;41176;44.032;20.900;2022-09-09T04:20:28;21.70;99.90
50544;DHT22;41176;44.032;20.900;2022-09-09T04:22:53;21.70;99.90
50544;DHT22;41176;44.032;20.900;2022-09-09T04:25:19;21.70;99.90
50544;DHT22;41176;44.032;20.900;2022-09-09T04:27:45;21.70;99.90
50544;DHT22;41176;44.032;20.900;2022-09-09T04:30:13;21.70;99.90
50544;DHT22;41176;44.032;20.900;2022-09-09T04:32:39;21.70;99.90
50544;DHT22;41176;44.032;20.900;2022-09-09T04:35:05;21.70;99.90
50544;DHT22;41176;44.032;20.900;2022-09-09T04:37:30;21.60;99.90
50544;DHT22;41176;44.032;20.900;2022-09-09T04:39:56;21.60;99.90
50544;DHT22;41176;44.032;20.900;2022-09-09T04:42:22;21.60;99.90
50544;DHT22;41176;44.032;20.900;2022-09-09T04:44:48;21.70;99.90
50544;DHT22;41176;44.032;20.900;2022-09-09T04:47:14;21.70;99.90
50544;DHT22;41176;44.032;20.900;2022-09-09T04:49:42;21.70;99.90
50544;DHT22;41176;44.032;20.900;2022-09-09T04:52:08;21.70;99.90
50544;DHT22;41176;44.032;20.900;2022-09-09T04:54:34;21.80;99.90
50544;DHT22;41176;44.032;20.900;2022-09-09T04:57:04;21.80;99.90
50544;DHT22;41176;44.032;20.900;2022-09-09T04:59:30;21.80;99.90
50544;DHT22;41176;44.032;20.900;2022-09-09T05:01:56;21.80;99.90
50544;DHT22;41176;44.032;20.900;2022-09-09T05:04:23;21.80;99.90
50544;DHT22;41176;44.032;20.900;2022-09-09T05:06:49;21.80;99.90
50544;DHT22;41176;44.032;20.900;2022-09-09T05:09:16;21.90;99.90
50544;DHT22;41176;44.032;20.900;2022-09-09T05:11:42;21.90;99.90
50544;DHT22;41176;44.032;20.900;2022-09-09T05:14:09;21.90;99.90
50544;DHT22;41176;44.032;20.900;2022-09-09T05:16:36;21.90;99.90
50544;DHT22;41176;44.032;20.900;2022-09-09T05:19:02;22.00;99.90
50544;DHT22;41176;44.032;20.900;2022-09-09T05:21:29;22.00;99.90
50544;DHT22;41176;44.032;20.900;2022-09-09T05:23:56;22.10;99.90
50544;DHT22;41176;44.032;20.900;2022-09-09T05:26:22;22.20;99.90
50544;DHT22;41176;44.032;20.900;2022-09-09T05:28:48;22.20;99.90
50544;DHT22;41176;44.032;20.900;2022-09-09T05:31:15;22.20;99.90
50544;DHT22;41176;44.032;20.900;2022-09-09T05:33:43;22.10;99.90
50544;DHT22;41176;44.032;20.900;2022-09-09T05:36:13;21.90;99.90
50544;DHT22;41176;44.032;20.900;2022-09-09T05:38:40;21.70;99.90
50544;DHT22;41176;44.032;20.900;2022-09-09T05:41:06;21.70;99.90
50544;DHT22;41176;44.032;20.900;2022-09-09T05:43:33;21.70;99.90
50544;DHT22;41176;44.032;20.900;2022-09-09T05:46:07;21.80;99.90
50544;DHT22;41176;44.032;20.900;2022-09-09T05:48:41;21.80;99.90
50544;DHT22;41176;44.032;20.900;2022-09-09T05:51:13;21.70;99.90
50544;DHT22;41176;44.032;20.900;2022-09-09T05:53:42;21.70;99.90
50544;DHT22;41176;44.032;20.900;2022-09-09T05:56:18;21.60;99.90
50544;DHT22;41176;44.032;20.900;2022-09-09T05:58:44;21.60;99.90
50544;DHT22;41176;44.032;20.900;2022-09-09T06:01:17;21.60;99.90
50544;DHT22;41176;44.032;20.900;2022-09-09T06:03:51;21.50;99.90
50544;DHT22;41176;44.032;20.900;2022-09-09T06:06:21;21.50;99.90
50544;DHT22;41176;44.032;20.900;2022-09-09T06:08:50;21.50;99.90
50544;DHT22;41176;44.032;20.900;2022-09-09T06:11:19;21.50;99.90
50544;DHT22;41176;44.032;20.900;2022-09-09T06:13:45;21.50;99.90
50544;DHT22;41176;44.032;20.900;2022-09-09T06:16:13;21.50;99.90
50544;DHT22;41176;44.032;20.900;2022-09-09T06:18:46;21.50;99.90
50544;DHT22;41176;44.032;20.900;2022-09-09T06:21:16;21.40;99.90
50544;DHT22;41176;44.032;20.900;2022-09-09T06:23:44;21.40;99.90
50544;DHT22;41176;44.032;20.900;2022-09-09T06:26:14;21.40;99.90
50544;DHT22;41176;44.032;20.900;2022-09-09T06:28:47;21.50;99.90
50544;DHT22;41176;44.032;20.900;2022-09-09T06:31:17;21.50;99.90
50544;DHT22;41176;44.032;20.900;2022-09-09T06:33:47;21.50;99.90
50544;DHT22;41176;44.032;20.900;2022-09-09T06:36:20;21.50;99.90
50544;DHT22;41176;44.032;20.900;2022-09-09T06:38:49;21.50;99.90
50544;DHT22;41176;44.032;20.900;2022-09-09T06:41:18;21.50;99.90
50544;DHT22;41176;44.032;20.900;2022-09-09T06:43:49;21.60;99.90
50544;DHT22;41176;44.032;20.900;2022-09-09T06:46:23;21.60;99.90
50544;DHT22;41176;44.032;20.900;2022-09-09T06:49:02;21.60;99.90
50544;DHT22;41176;44.032;20.900;2022-09-09T06:51:37;21.70;99.90
50544;DHT22;41176;44.032;20.900;2022-09-09T06:54:16;21.80;99.90
50544;DHT22;41176;44.032;20.900;2022-09-09T06:56:47;21.80;99.90
50544;DHT22;41176;44.032;20.900;2022-09-09T06:59:19;21.80;99.90
50544;DHT22;41176;44.032;20.900;2022-09-09T07:01:46;22.00;99.90
50544;DHT22;41176;44.032;20.900;2022-09-09T07:04:13;22.10;99.90
50544;DHT22;41176;44.032;20.900;2022-09-09T07:06:45;22.20;99.90
50544;DHT22;41176;44.032;20.900;2022-09-09T07:09:18;22.20;99.90
50544;DHT22;41176;44.032;20.900;2022-09-09T07:11:50;22.20;99.90
50544;DHT22;41176;44.032;20.900;2022-09-09T07:14:19;22.40;99.90
50544;DHT22;41176;44.032;20.900;2022-09-09T07:16:47;22.50;99.90
50544;DHT22;41176;44.032;20.900;2022-09-09T07:19:33;22.50;99.90
50544;DHT22;41176;44.032;20.900;2022-09-09T07:22:00;22.60;99.90
50544;DHT22;41176;44.032;20.900;2022-09-09T07:24:29;22.80;99.90
50544;DHT22;41176;44.032;20.900;2022-09-09T07:26:56;23.00;99.90
50544;DHT22;41176;44.032;20.900;2022-09-09T07:29:24;23.10;99.90
50544;DHT22;41176;44.032;20.900;2022-09-09T07:31:50;23.20;99.90
50544;DHT22;41176;44.032;20.900;2022-09-09T07:34:17;23.30;99.90
50544;DHT22;41176;44.032;20.900;2022-09-09T07:36:43;23.50;99.90
50544;DHT22;41176;44.032;20.900;2022-09-09T07:39:12;23.40;99.90
50544;DHT22;41176;44.032;20.900;2022-09-09T07:41:41;23.30;99.90
50544;DHT22;41176;44.032;20.900;2022-09-09T07:44:10;23.10;99.90
50544;DHT22;41176;44.032;20.900;2022-09-09T07:46:39;23.00;99.90
50544;DHT22;41176;44.032;20.900;2022-09-09T07:49:05;23.00;99.90
50544;DHT22;41176;44.032;20.900;2022-09-09T07:51:34;23.10;99.90
50544;DHT22;41176;44.032;20.900;2022-09-09T07:54:04;23.10;99.90
50544;DHT22;41176;44.032;20.900;2022-09-09T07:56:33;23.00;99.90
50544;DHT22;41176;44.032;20.900;2022-09-09T07:58:58;23.00;99.90
50544;DHT22;41176;44.032;20.900;2022-09-09T08:01:33;23.10;99.90
50544;DHT22;41176;44.032;20.900;2022-09-09T08:04:02;23.20;99.90
50544;DHT22;41176;44.032;20.900;2022-09-09T08:12:56;23.20;99.90
50544;DHT22;41176;44.032;20.900;2022-09-09T08:15:22;23.30;99.90
50544;DHT22;41176;44.032;20.900;2022-09-09T08:17:55;23.70;99.90
50544;DHT22;41176;44.032;20.900;2022-09-09T08:20:22;23.80;99.90
50544;DHT22;41176;44.032;20.900;2022-09-09T08:22:51;23.70;99.90
50544;DHT22;41176;44.032;20.900;2022-09-09T08:25:21;23.70;99.90
50544;DHT22;41176;44.032;20.900;2022-09-09T08:27:53;23.80;99.90
50544;DHT22;41176;44.032;20.900;2022-09-09T08:30:18;23.80;99.90
50544;DHT22;41176;44.032;20.900;2022-09-09T08:32:48;23.90;99.90
50544;DHT22;41176;44.032;20.900;2022-09-09T08:35:16;24.10;99.90
50544;DHT22;41176;44.032;20.900;2022-09-09T08:37:45;24.20;99.90
50544;DHT22;41176;44.032;20.900;2022-09-09T08:40:21;24.30;99.90
50544;DHT22;41176;44.032;20.900;2022-09-09T08:42:53;24.60;99.90
50544;DHT22;41176;44.032;20.900;2022-09-09T08:46:09;24.70;99.90
50544;DHT22;41176;44.032;20.900;2022-09-09T08:49:00;24.90;99.90
50544;DHT22;41176;44.032;20.900;2022-09-09T08:51:27;25.10;99.90
50544;DHT22;41176;44.032;20.900;2022-09-09T08:53:58;25.40;99.90
50544;DHT22;41176;44.032;20.900;2022-09-09T08:56:27;25.50;99.90
50544;DHT22;41176;44.032;20.900;2022-09-09T08:58:55;25.70;99.90
50544;DHT22;41176;44.032;20.900;2022-09-09T09:07:47;27.70;94.70
50544;DHT22;41176;44.032;20.900;2022-09-09T09:10:42;28.60;93.40
50544;DHT22;41176;44.032;20.900;2022-09-09T09:13:17;28.90;90.30
50544;DHT22;41176;44.032;20.900;2022-09-09T09:15:48;29.00;86.80
50544;DHT22;41176;44.032;20.900;2022-09-09T09:18:17;28.80;82.80
50544;DHT22;41176;44.032;20.900;2022-09-09T09:20:50;29.30;84.70
50544;DHT22;41176;44.032;20.900;2022-09-09T09:26:34;30.80;78.50
50544;DHT22;41176;44.032;20.900;2022-09-09T09:29:13;31.00;75.00
50544;DHT22;41176;44.032;20.900;2022-09-09T09:31:45;29.50;75.60
50544;DHT22;41176;44.032;20.900;2022-09-09T09:34:13;28.80;76.10
50544;DHT22;41176;44.032;20.900;2022-09-09T09:36:45;28.80;76.70
50544;DHT22;41176;44.032;20.900;2022-09-09T09:41:51;29.50;74.70
50544;DHT22;41176;44.032;20.900;2022-09-09T09:46:50;30.10;72.00
50544;DHT22;41176;44.032;20.900;2022-09-09T09:49:16;29.70;74.50
50544;DHT22;41176;44.032;20.900;2022-09-09T09:51:42;30.30;75.00
50544;DHT22;41176;44.032;20.900;2022-09-09T09:54:22;31.20;71.70
50544;DHT22;41176;44.032;20.900;2022-09-09T09:56:53;31.50;71.70
50544;DHT22;41176;44.032;20.900;2022-09-09T10:01:54;32.20;69.30
50544;DHT22;41176;44.032;20.900;2022-09-09T10:04:31;32.20;69.80
50544;DHT22;41176;44.032;20.900;2022-09-09T10:06:58;32.00;69.00
50544;DHT22;41176;44.032;20.900;2022-09-09T10:09:35;31.20;68.10
50544;DHT22;41176;44.032;20.900;2022-09-09T10:18:05;29.40;71.70
50544;DHT22;41176;44.032;20.900;2022-09-09T10:20:45;29.00;72.60
50544;DHT22;41176;44.032;20.900;2022-09-09T10:23:38;29.60;71.30
50544;DHT22;41176;44.032;20.900;2022-09-09T10:29:03;29.70;71.80
50544;DHT22;41176;44.032;20.900;2022-09-09T10:31:49;29.60;68.80
50544;DHT22;41176;44.032;20.900;2022-09-09T10:36:55;29.20;72.20
50544;DHT22;41176;44.032;20.900;2022-09-09T10:39:37;28.80;71.60
50544;DHT22;41176;44.032;20.900;2022-09-09T10:42:16;28.40;73.70
50544;DHT22;41176;44.032;20.900;2022-09-09T10:44:57;28.30;75.30
50544;DHT22;41176;44.032;20.900;2022-09-09T10:53:13;27.50;76.10
50544;DHT22;41176;44.032;20.900;2022-09-09T10:55:48;27.20;78.40
50544;DHT22;41176;44.032;20.900;2022-09-09T10:58:31;27.10;79.60
50544;DHT22;41176;44.032;20.900;2022-09-09T11:01:15;27.20;80.10
50544;DHT22;41176;44.032;20.900;2022-09-09T11:03:43;27.30;80.90
50544;DHT22;41176;44.032;20.900;2022-09-09T11:06:19;27.30;81.50
50544;DHT22;41176;44.032;20.900;2022-09-09T11:08:46;27.40;80.80
50544;DHT22;41176;44.032;20.900;2022-09-09T11:11:27;27.80;78.50
50544;DHT22;41176;44.032;20.900;2022-09-09T11:16:47;28.80;79.20
50544;DHT22;41176;44.032;20.900;2022-09-09T11:21:59;28.50;76.60
50544;DHT22;41176;44.032;20.900;2022-09-09T11:24:44;27.90;79.00
50544;DHT22;41176;44.032;20.900;2022-09-09T11:27:30;28.60;79.20
50544;DHT22;41176;44.032;20.900;2022-09-09T11:38:26;30.00;76.00
50544;DHT22;41176;44.032;20.900;2022-09-09T11:41:12;30.50;75.20
50544;DHT22;41176;44.032;20.900;2022-09-09T11:44:57;30.70;74.50
50544;DHT22;41176;44.032;20.900;2022-09-09T11:49:50;30.80;70.10
50544;DHT22;41176;44.032;20.900;2022-09-09T11:52:24;30.50;70.70
50544;DHT22;41176;44.032;20.900;2022-09-09T11:54:54;30.10;70.80
50544;DHT22;41176;44.032;20.900;2022-09-09T11:57:35;29.90;71.10
50544;DHT22;41176;44.032;20.900;2022-09-09T12:00:03;29.60;67.40
50544;DHT22;41176;44.032;20.900;2022-09-09T12:02:29;29.70;69.40
50544;DHT22;41176;44.032;20.900;2022-09-09T12:05:09;29.90;69.70
50544;DHT22;41176;44.032;20.900;2022-09-09T12:07:57;30.10;70.90
50544;DHT22;41176;44.032;20.900;2022-09-09T12:10:34;30.10;67.50
50544;DHT22;41176;44.032;20.900;2022-09-09T12:15:53;30.20;66.80
50544;DHT22;41176;44.032;20.900;2022-09-09T12:18:36;29.90;68.10
50544;DHT22;41176;44.032;20.900;2022-09-09T12:21:58;29.80;68.00
50544;DHT22;41176;44.032;20.900;2022-09-09T12:24:09;29.40;68.20
50544;DHT22;41176;44.032;20.900;2022-09-09T12:35:04;29.90;68.10
50544;DHT22;41176;44.032;20.900;2022-09-09T12:37:57;29.40;65.90
50544;DHT22;41176;44.032;20.900;2022-09-09T12:40:30;28.90;67.80
50544;DHT22;41176;44.032;20.900;2022-09-09T12:42:58;28.30;66.70
50544;DHT22;41176;44.032;20.900;2022-09-09T12:45:29;28.30;67.50
50544;DHT22;41176;44.032;20.900;2022-09-09T12:48:05;28.60;69.10
50544;DHT22;41176;44.032;20.900;2022-09-09T12:50:38;28.90;69.10
50544;DHT22;41176;44.032;20.900;2022-09-09T12:53:12;29.20;67.80
50544;DHT22;41176;44.032;20.900;2022-09-09T12:55:52;28.90;66.60
50544;DHT22;41176;44.032;20.900;2022-09-09T12:58:19;28.80;67.70
50544;DHT22;41176;44.032;20.900;2022-09-09T13:00:53;29.00;67.00
50544;DHT22;41176;44.032;20.900;2022-09-09T13:03:22;29.00;68.10
50544;DHT22;41176;44.032;20.900;2022-09-09T13:05:48;29.20;69.90
50544;DHT22;41176;44.032;20.900;2022-09-09T13:08:16;29.30;69.80
50544;DHT22;41176;44.032;20.900;2022-09-09T13:11:01;29.40;65.80
50544;DHT22;41176;44.032;20.900;2022-09-09T13:13:35;29.30;67.60
50544;DHT22;41176;44.032;20.900;2022-09-09T13:16:02;29.50;66.30
50544;DHT22;41176;44.032;20.900;2022-09-09T13:18:33;29.50;67.70
50544;DHT22;41176;44.032;20.900;2022-09-09T13:20:59;29.40;65.30
50544;DHT22;41176;44.032;20.900;2022-09-09T13:23:34;29.20;66.40
50544;DHT22;41176;44.032;20.900;2022-09-09T13:26:24;29.20;66.40
50544;DHT22;41176;44.032;20.900;2022-09-09T13:28:50;29.20;67.40
50544;DHT22;41176;44.032;20.900;2022-09-09T13:31:36;29.20;67.10
50544;DHT22;41176;44.032;20.900;2022-09-09T13:34:27;29.00;67.90
50544;DHT22;41176;44.032;20.900;2022-09-09T13:36:59;29.00;67.80
50544;DHT22;41176;44.032;20.900;2022-09-09T13:39:28;28.90;69.10
50544;DHT22;41176;44.032;20.900;2022-09-09T13:41:54;28.70;70.10
50544;DHT22;41176;44.032;20.900;2022-09-09T13:44:24;28.40;73.50
50544;DHT22;41176;44.032;20.900;2022-09-09T13:47:02;28.10;74.40
50544;DHT22;41176;44.032;20.900;2022-09-09T13:49:29;27.90;75.90
50544;DHT22;41176;44.032;20.900;2022-09-09T13:54:40;27.80;75.80
50544;DHT22;41176;44.032;20.900;2022-09-09T13:57:18;28.00;77.10
50544;DHT22;41176;44.032;20.900;2022-09-09T13:59:46;27.90;76.10
50544;DHT22;41176;44.032;20.900;2022-09-09T14:02:13;28.10;76.50
50544;DHT22;41176;44.032;20.900;2022-09-09T14:04:39;28.30;75.00
50544;DHT22;41176;44.032;20.900;2022-09-09T14:07:15;28.30;75.80
50544;DHT22;41176;44.032;20.900;2022-09-09T14:09:42;28.30;75.40
50544;DHT22;41176;44.032;20.900;2022-09-09T14:12:11;28.20;75.00
50544;DHT22;41176;44.032;20.900;2022-09-09T14:14:38;28.20;75.90
50544;DHT22;41176;44.032;20.900;2022-09-09T14:17:04;28.10;74.30
50544;DHT22;41176;44.032;20.900;2022-09-09T14:19:30;28.10;76.60
50544;DHT22;41176;44.032;20.900;2022-09-09T14:21:57;28.10;75.10
50544;DHT22;41176;44.032;20.900;2022-09-09T14:24:23;28.20;75.40
50544;DHT22;41176;44.032;20.900;2022-09-09T14:26:51;28.10;75.00
50544;DHT22;41176;44.032;20.900;2022-09-09T14:29:17;28.30;77.30
50544;DHT22;41176;44.032;20.900;2022-09-09T14:31:43;28.30;76.40
50544;DHT22;41176;44.032;20.900;2022-09-09T14:34:09;28.20;75.70
50544;DHT22;41176;44.032;20.900;2022-09-09T14:36:37;28.10;78.10
50544;DHT22;41176;44.032;20.900;2022-09-09T14:39:03;27.90;76.00
50544;DHT22;41176;44.032;20.900;2022-09-09T14:41:30;27.60;76.80
50544;DHT22;41176;44.032;20.900;2022-09-09T14:43:58;27.40;78.00
50544;DHT22;41176;44.032;20.900;2022-09-09T14:46:25;27.30;78.40
50544;DHT22;41176;44.032;20.900;2022-09-09T14:48:52;27.30;79.20
50544;DHT22;41176;44.032;20.900;2022-09-09T14:51:23;27.30;79.20
50544;DHT22;41176;44.032;20.900;2022-09-09T14:53:52;27.40;79.00
50544;DHT22;41176;44.032;20.900;2022-09-09T14:56:24;27.50;78.40
50544;DHT22;41176;44.032;20.900;2022-09-09T14:58:50;27.60;78.10
50544;DHT22;41176;44.032;20.900;2022-09-09T15:01:19;27.50;78.30
50544;DHT22;41176;44.032;20.900;2022-09-09T15:03:53;27.60;78.60
50544;DHT22;41176;44.032;20.900;2022-09-09T15:06:20;27.60;79.40
50544;DHT22;41176;44.032;20.900;2022-09-09T15:08:47;27.70;79.90
50544;DHT22;41176;44.032;20.900;2022-09-09T15:11:15;27.70;78.00
50544;DHT22;41176;44.032;20.900;2022-09-09T15:13:45;27.60;77.90
50544;DHT22;41176;44.032;20.900;2022-09-09T15:16:16;27.30;78.70
50544;DHT22;41176;44.032;20.900;2022-09-09T15:18:44;27.30;79.20
50544;DHT22;41176;44.032;20.900;2022-09-09T15:21:12;27.30;79.90
50544;DHT22;41176;44.032;20.900;2022-09-09T15:23:39;27.30;79.40
50544;DHT22;41176;44.032;20.900;2022-09-09T15:26:11;27.10;79.90
50544;DHT22;41176;44.032;20.900;2022-09-09T15:28:41;26.90;80.50
50544;DHT22;41176;44.032;20.900;2022-09-09T15:31:30;26.80;80.50
50544;DHT22;41176;44.032;20.900;2022-09-09T15:34:01;26.70;81.20
50544;DHT22;41176;44.032;20.900;2022-09-09T15:36:32;26.60;81.50
50544;DHT22;41176;44.032;20.900;2022-09-09T15:39:00;26.50;81.90
50544;DHT22;41176;44.032;20.900;2022-09-09T15:41:26;26.40;82.40
50544;DHT22;41176;44.032;20.900;2022-09-09T15:43:54;26.40;83.20
50544;DHT22;41176;44.032;20.900;2022-09-09T15:49:10;26.40;83.80
50544;DHT22;41176;44.032;20.900;2022-09-09T15:51:37;26.40;84.40
50544;DHT22;41176;44.032;20.900;2022-09-09T15:54:04;26.40;84.60
50544;DHT22;41176;44.032;20.900;2022-09-09T15:56:30;26.40;85.30
50544;DHT22;41176;44.032;20.900;2022-09-09T15:58:58;26.50;85.40
50544;DHT22;41176;44.032;20.900;2022-09-09T16:01:26;26.40;85.20
50544;DHT22;41176;44.032;20.900;2022-09-09T16:03:52;26.40;85.70
50544;DHT22;41176;44.032;20.900;2022-09-09T16:06:21;26.30;85.50
50544;DHT22;41176;44.032;20.900;2022-09-09T16:09:20;26.00;86.50
50544;DHT22;41176;44.032;20.900;2022-09-09T16:11:46;25.80;87.10
50544;DHT22;41176;44.032;20.900;2022-09-09T16:14:13;25.90;87.60
50544;DHT22;41176;44.032;20.900;2022-09-09T16:16:39;25.90;87.20
50544;DHT22;41176;44.032;20.900;2022-09-09T16:19:11;25.90;87.70
50544;DHT22;41176;44.032;20.900;2022-09-09T16:22:08;25.90;87.70
50544;DHT22;41176;44.032;20.900;2022-09-09T16:27:56;25.90;88.80
50544;DHT22;41176;44.032;20.900;2022-09-09T16:30:22;25.80;88.50
50544;DHT22;41176;44.032;20.900;2022-09-09T16:32:48;25.70;89.00
50544;DHT22;41176;44.032;20.900;2022-09-09T16:35:14;25.60;88.90
50544;DHT22;41176;44.032;20.900;2022-09-09T16:37:40;25.60;89.40
50544;DHT22;41176;44.032;20.900;2022-09-09T16:40:07;25.50;89.70
50544;DHT22;41176;44.032;20.900;2022-09-09T16:42:34;25.40;90.00
50544;DHT22;41176;44.032;20.900;2022-09-09T16:44:59;25.40;90.10
50544;DHT22;41176;44.032;20.900;2022-09-09T16:47:25;25.40;90.20
50544;DHT22;41176;44.032;20.900;2022-09-09T16:49:51;25.40;90.50
50544;DHT22;41176;44.032;20.900;2022-09-09T16:52:17;25.40;90.40
50544;DHT22;41176;44.032;20.900;2022-09-09T16:54:42;25.40;90.50
50544;DHT22;41176;44.032;20.900;2022-09-09T16:57:08;25.30;90.70
50544;DHT22;41176;44.032;20.900;2022-09-09T16:59:34;25.30;91.00
50544;DHT22;41176;44.032;20.900;2022-09-09T17:02:00;25.30;91.30
50544;DHT22;41176;44.032;20.900;2022-09-09T17:04:30;25.20;91.40
50544;DHT22;41176;44.032;20.900;2022-09-09T17:06:56;25.10;91.50
50544;DHT22;41176;44.032;20.900;2022-09-09T17:09:26;25.10;91.90
50544;DHT22;41176;44.032;20.900;2022-09-09T17:11:54;25.10;91.80
50544;DHT22;41176;44.032;20.900;2022-09-09T17:14:21;25.10;92.20
50544;DHT22;41176;44.032;20.900;2022-09-09T17:16:47;25.00;92.20
50544;DHT22;41176;44.032;20.900;2022-09-09T17:19:14;25.00;92.40
50544;DHT22;41176;44.032;20.900;2022-09-09T17:21:40;24.90;92.40
50544;DHT22;41176;44.032;20.900;2022-09-09T17:24:06;24.90;92.50
50544;DHT22;41176;44.032;20.900;2022-09-09T17:26:34;24.90;92.70
50544;DHT22;41176;44.032;20.900;2022-09-09T17:29:05;24.80;92.90
50544;DHT22;41176;44.032;20.900;2022-09-09T17:31:32;24.90;93.00
50544;DHT22;41176;44.032;20.900;2022-09-09T17:33:58;24.90;93.00
50544;DHT22;41176;44.032;20.900;2022-09-09T17:36:30;24.80;93.20
50544;DHT22;41176;44.032;20.900;2022-09-09T17:39:06;24.90;93.20
50544;DHT22;41176;44.032;20.900;2022-09-09T17:41:37;24.90;93.10
50544;DHT22;41176;44.032;20.900;2022-09-09T17:44:07;24.90;93.40
50544;DHT22;41176;44.032;20.900;2022-09-09T17:46:38;24.80;93.40
50544;DHT22;41176;44.032;20.900;2022-09-09T17:49:09;24.70;93.90
50544;DHT22;41176;44.032;20.900;2022-09-09T17:51:36;24.70;93.70
50544;DHT22;41176;44.032;20.900;2022-09-09T17:54:34;24.80;93.90